sensor_id;sensor_type;location;lat;lon;timestamp;P1;durP1;ratioP1;P2;durP2;ratioP2
32250;SDS011;41295;48.518;9.206;2023-03-01T00:01:55;35.10;;;18.90;;
32250;SDS011;41295;48.518;9.206;2023-03-01T00:03:57;35.05;;;18.83;;
32250;SDS011;41295;48.518;9.206;2023-03-01T00:06:01;38.10;;;19.58;;
32250;SDS011;41295;48.518;9.206;2023-03-01T00:08:04;32.65;;;17.17;;
32250;SDS011;41295;48.518;9.206;2023-03-01T00:10:07;35.60;;;19.25;;
32250;SDS011;41295;48.518;9.206;2023-03-01T00:12:11;35.60;;;19.77;;
32250;SDS011;41295;48.518;9.206;2023-03-01T00:14:15;34.17;;;19.42;;
32250;SDS011;41295;48.518;9.206;2023-03-01T00:16:19;34.42;;;19.30;;
32250;SDS011;41295;48.518;9.206;2023-03-01T00:18:24;34.42;;;18.73;;
32250;SDS011;41295;48.518;9.206;2023-03-01T00:20:26;33.67;;;18.00;;
32250;SDS011;41295;48.518;9.206;2023-03-01T00:22:29;36.97;;;19.63;;
32250;SDS011;41295;48.518;9.206;2023-03-01T00:24:32;36.42;;;17.95;;
32250;SDS011;41295;48.518;9.206;2023-03-01T00:26:34;32.70;;;19.15;;
32250;SDS011;41295;48.518;9.206;2023-03-01T00:28:37;37.03;;;19.75;;
32250;SDS011;41295;48.518;9.206;2023-03-01T00:30:41;34.85;;;19.20;;
32250;SDS011;41295;48.518;9.206;2023-03-01T00:32:44;36.58;;;19.70;;
32250;SDS011;41295;48.518;9.206;2023-03-01T00:34:46;37.90;;;20.00;;
32250;SDS011;41295;48.518;9.206;2023-03-01T00:36:55;35.70;;;19.80;;
32250;SDS011;41295;48.518;9.206;2023-03-01T00:39:09;37.78;;;19.67;;
32250;SDS011;41295;48.518;9.206;2023-03-01T00:41:14;34.20;;;19.65;;
32250;SDS011;41295;48.518;9.206;2023-03-01T00:43:17;35.13;;;19.33;;
32250;SDS011;41295;48.518;9.206;2023-03-01T00:45:20;38.10;;;19.52;;
32250;SDS011;41295;48.518;9.206;2023-03-01T00:47:25;32.13;;;19.13;;
32250;SDS011;41295;48.518;9.206;2023-03-01T00:49:27;38.60;;;19.10;;
32250;SDS011;41295;48.518;9.206;2023-03-01T00:51:30;35.97;;;19.25;;
32250;SDS011;41295;48.518;9.206;2023-03-01T00:53:33;40.92;;;20.73;;
32250;SDS011;41295;48.518;9.206;2023-03-01T00:55:37;35.15;;;19.23;;
32250;SDS011;41295;48.518;9.206;2023-03-01T00:57:39;34.92;;;19.88;;
32250;SDS011;41295;48.518;9.206;2023-03-01T00:59:42;36.97;;;19.83;;
32250;SDS011;41295;48.518;9.206;2023-03-01T01:01:44;35.63;;;18.45;;
32250;SDS011;41295;48.518;9.206;2023-03-01T01:03:49;35.65;;;18.63;;
32250;SDS011;41295;48.518;9.206;2023-03-01T01:05:54;35.20;;;19.05;;
32250;SDS011;41295;48.518;9.206;2023-03-01T01:07:56;36.10;;;19.05;;
32250;SDS011;41295;48.518;9.206;2023-03-01T01:09:59;37.90;;;19.33;;
32250;SDS011;41295;48.518;9.206;2023-03-01T01:12:02;34.13;;;18.88;;
32250;SDS011;41295;48.518;9.206;2023-03-01T01:14:05;37.97;;;19.33;;
32250;SDS011;41295;48.518;9.206;2023-03-01T01:16:07;35.25;;;19.08;;
32250;SDS011;41295;48.518;9.206;2023-03-01T01:18:10;37.25;;;19.85;;
32250;SDS011;41295;48.518;9.206;2023-03-01T01:20:14;34.42;;;19.10;;
32250;SDS011;41295;48.518;9.206;2023-03-01T01:22:17;33.15;;;19.50;;
32250;SDS011;41295;48.518;9.206;2023-03-01T01:24:19;36.10;;;19.05;;
32250;SDS011;41295;48.518;9.206;2023-03-01T01:26:23;38.30;;;19.67;;
32250;SDS011;41295;48.518;9.206;2023-03-01T01:28:26;36.38;;;19.80;;
32250;SDS011;41295;48.518;9.206;2023-03-01T01:30:29;37.30;;;18.80;;
32250;SDS011;41295;48.518;9.206;2023-03-01T01:32:31;34.50;;;19.15;;
32250;SDS011;41295;48.518;9.206;2023-03-01T01:34:34;42.25;;;18.70;;
32250;SDS011;41295;48.518;9.206;2023-03-01T01:36:38;31.55;;;17.95;;
32250;SDS011;41295;48.518;9.206;2023-03-01T01:38:40;34.42;;;19.42;;
32250;SDS011;41295;48.518;9.206;2023-03-01T01:40:43;35.35;;;18.98;;
32250;SDS011;41295;48.518;9.206;2023-03-01T01:42:46;33.55;;;18.67;;
32250;SDS011;41295;48.518;9.206;2023-03-01T01:47:25;35.42;;;19.88;;
32250;SDS011;41295;48.518;9.206;2023-03-01T01:49:35;35.30;;;18.70;;
32250;SDS011;41295;48.518;9.206;2023-03-01T01:51:42;38.03;;;19.35;;
32250;SDS011;41295;48.518;9.206;2023-03-01T01:53:50;35.78;;;19.75;;
32250;SDS011;41295;48.518;9.206;2023-03-01T01:56:00;31.30;;;18.63;;
32250;SDS011;41295;48.518;9.206;2023-03-01T01:58:04;34.70;;;18.50;;
32250;SDS011;41295;48.518;9.206;2023-03-01T02:00:12;32.63;;;18.70;;
32250;SDS011;41295;48.518;9.206;2023-03-01T02:02:17;33.25;;;19.38;;
32250;SDS011;41295;48.518;9.206;2023-03-01T02:04:22;32.22;;;18.80;;
32250;SDS011;41295;48.518;9.206;2023-03-01T02:06:26;35.95;;;19.60;;
32250;SDS011;41295;48.518;9.206;2023-03-01T02:08:35;34.15;;;18.92;;
32250;SDS011;41295;48.518;9.206;2023-03-01T02:10:40;39.53;;;19.17;;
32250;SDS011;41295;48.518;9.206;2023-03-01T02:12:43;35.80;;;19.05;;
32250;SDS011;41295;48.518;9.206;2023-03-01T02:14:46;39.33;;;19.52;;
32250;SDS011;41295;48.518;9.206;2023-03-01T02:16:49;28.55;;;16.88;;
32250;SDS011;41295;48.518;9.206;2023-03-01T02:18:52;35.05;;;18.60;;
32250;SDS011;41295;48.518;9.206;2023-03-01T02:20:59;35.60;;;20.08;;
32250;SDS011;41295;48.518;9.206;2023-03-01T02:23:11;37.30;;;18.77;;
32250;SDS011;41295;48.518;9.206;2023-03-01T02:25:22;37.88;;;19.90;;
32250;SDS011;41295;48.518;9.206;2023-03-01T02:27:31;34.88;;;18.38;;
32250;SDS011;41295;48.518;9.206;2023-03-01T02:29:40;35.35;;;19.08;;
32250;SDS011;41295;48.518;9.206;2023-03-01T02:31:45;34.42;;;18.67;;
32250;SDS011;41295;48.518;9.206;2023-03-01T02:35:49;34.80;;;18.92;;
32250;SDS011;41295;48.518;9.206;2023-03-01T02:37:52;36.03;;;18.30;;
32250;SDS011;41295;48.518;9.206;2023-03-01T02:40:03;36.25;;;19.00;;
32250;SDS011;41295;48.518;9.206;2023-03-01T02:42:08;37.15;;;19.63;;
32250;SDS011;41295;48.518;9.206;2023-03-01T02:44:13;34.33;;;18.77;;
32250;SDS011;41295;48.518;9.206;2023-03-01T02:46:18;32.80;;;18.00;;
32250;SDS011;41295;48.518;9.206;2023-03-01T02:48:23;33.58;;;18.90;;
32250;SDS011;41295;48.518;9.206;2023-03-01T02:50:36;37.00;;;20.55;;
32250;SDS011;41295;48.518;9.206;2023-03-01T02:52:52;34.72;;;18.65;;
32250;SDS011;41295;48.518;9.206;2023-03-01T02:55:01;34.72;;;18.73;;
32250;SDS011;41295;48.518;9.206;2023-03-01T02:57:07;34.42;;;18.13;;
32250;SDS011;41295;48.518;9.206;2023-03-01T02:59:11;37.03;;;20.38;;
32250;SDS011;41295;48.518;9.206;2023-03-01T03:01:14;34.83;;;18.77;;
32250;SDS011;41295;48.518;9.206;2023-03-01T03:03:19;33.75;;;19.38;;
32250;SDS011;41295;48.518;9.206;2023-03-01T03:05:24;36.35;;;18.13;;
32250;SDS011;41295;48.518;9.206;2023-03-01T03:07:28;37.90;;;19.65;;
32250;SDS011;41295;48.518;9.206;2023-03-01T03:09:31;33.95;;;18.85;;
32250;SDS011;41295;48.518;9.206;2023-03-01T03:11:33;32.45;;;18.48;;
32250;SDS011;41295;48.518;9.206;2023-03-01T03:13:37;32.00;;;17.50;;
32250;SDS011;41295;48.518;9.206;2023-03-01T03:15:49;32.40;;;19.02;;
32250;SDS011;41295;48.518;9.206;2023-03-01T03:17:52;34.30;;;19.27;;
32250;SDS011;41295;48.518;9.206;2023-03-01T03:19:59;38.58;;;19.17;;
32250;SDS011;41295;48.518;9.206;2023-03-01T03:22:01;34.72;;;18.83;;
32250;SDS011;41295;48.518;9.206;2023-03-01T03:24:04;36.70;;;19.70;;
32250;SDS011;41295;48.518;9.206;2023-03-01T03:26:07;33.78;;;19.05;;
32250;SDS011;41295;48.518;9.206;2023-03-01T03:28:09;37.03;;;19.50;;
32250;SDS011;41295;48.518;9.206;2023-03-01T03:30:13;39.15;;;20.17;;
32250;SDS011;41295;48.518;9.206;2023-03-01T03:32:18;33.70;;;18.90;;
32250;SDS011;41295;48.518;9.206;2023-03-01T03:34:20;33.70;;;18.75;;
32250;SDS011;41295;48.518;9.206;2023-03-01T03:36:24;35.40;;;20.10;;
32250;SDS011;41295;48.518;9.206;2023-03-01T03:38:27;32.42;;;18.63;;
32250;SDS011;41295;48.518;9.206;2023-03-01T03:40:30;32.50;;;18.90;;
32250;SDS011;41295;48.518;9.206;2023-03-01T03:42:37;37.15;;;19.17;;
32250;SDS011;41295;48.518;9.206;2023-03-01T03:44:39;38.67;;;19.15;;
32250;SDS011;41295;48.518;9.206;2023-03-01T03:46:42;33.97;;;19.13;;
32250;SDS011;41295;48.518;9.206;2023-03-01T03:48:45;34.60;;;19.65;;
32250;SDS011;41295;48.518;9.206;2023-03-01T03:50:48;43.25;;;20.65;;
32250;SDS011;41295;48.518;9.206;2023-03-01T03:52:53;35.35;;;18.38;;
32250;SDS011;41295;48.518;9.206;2023-03-01T03:54:56;36.38;;;19.33;;
32250;SDS011;41295;48.518;9.206;2023-03-01T03:56:58;36.63;;;20.38;;
32250;SDS011;41295;48.518;9.206;2023-03-01T03:59:01;37.88;;;19.33;;
32250;SDS011;41295;48.518;9.206;2023-03-01T04:01:04;40.03;;;20.60;;
32250;SDS011;41295;48.518;9.206;2023-03-01T04:03:07;37.55;;;19.73;;
32250;SDS011;41295;48.518;9.206;2023-03-01T04:05:11;37.28;;;19.98;;
32250;SDS011;41295;48.518;9.206;2023-03-01T04:07:16;36.08;;;20.23;;
32250;SDS011;41295;48.518;9.206;2023-03-01T04:09:20;37.13;;;19.77;;
32250;SDS011;41295;48.518;9.206;2023-03-01T04:11:22;35.95;;;19.70;;
32250;SDS011;41295;48.518;9.206;2023-03-01T04:13:28;39.85;;;19.17;;
32250;SDS011;41295;48.518;9.206;2023-03-01T04:15:31;38.80;;;20.70;;
32250;SDS011;41295;48.518;9.206;2023-03-01T04:17:34;37.40;;;20.52;;
32250;SDS011;41295;48.518;9.206;2023-03-01T04:19:36;36.65;;;19.80;;
32250;SDS011;41295;48.518;9.206;2023-03-01T04:21:39;48.78;;;21.17;;
32250;SDS011;41295;48.518;9.206;2023-03-01T04:23:41;38.85;;;19.52;;
32250;SDS011;41295;48.518;9.206;2023-03-01T04:25:47;39.30;;;19.70;;
32250;SDS011;41295;48.518;9.206;2023-03-01T04:27:54;38.95;;;20.05;;
32250;SDS011;41295;48.518;9.206;2023-03-01T04:29:57;39.60;;;20.90;;
32250;SDS011;41295;48.518;9.206;2023-03-01T04:31:59;40.08;;;20.42;;
32250;SDS011;41295;48.518;9.206;2023-03-01T04:34:02;43.50;;;20.52;;
32250;SDS011;41295;48.518;9.206;2023-03-01T04:36:05;37.35;;;19.55;;
32250;SDS011;41295;48.518;9.206;2023-03-01T04:38:10;36.95;;;20.15;;
32250;SDS011;41295;48.518;9.206;2023-03-01T04:40:12;36.17;;;20.45;;
32250;SDS011;41295;48.518;9.206;2023-03-01T04:42:19;38.25;;;20.80;;
32250;SDS011;41295;48.518;9.206;2023-03-01T04:44:21;39.60;;;20.42;;
32250;SDS011;41295;48.518;9.206;2023-03-01T04:46:24;36.03;;;20.50;;
32250;SDS011;41295;48.518;9.206;2023-03-01T04:48:27;36.88;;;20.83;;
32250;SDS011;41295;48.518;9.206;2023-03-01T04:50:30;36.08;;;20.63;;
32250;SDS011;41295;48.518;9.206;2023-03-01T04:52:32;37.17;;;20.33;;
32250;SDS011;41295;48.518;9.206;2023-03-01T04:54:35;35.25;;;19.65;;
32250;SDS011;41295;48.518;9.206;2023-03-01T04:56:38;37.05;;;19.45;;
32250;SDS011;41295;48.518;9.206;2023-03-01T04:58:42;36.30;;;19.80;;
32250;SDS011;41295;48.518;9.206;2023-03-01T05:00:45;37.47;;;20.35;;
32250;SDS011;41295;48.518;9.206;2023-03-01T05:02:48;35.55;;;19.55;;
32250;SDS011;41295;48.518;9.206;2023-03-01T05:04:54;39.17;;;20.83;;
32250;SDS011;41295;48.518;9.206;2023-03-01T05:06:58;36.53;;;20.98;;
32250;SDS011;41295;48.518;9.206;2023-03-01T05:09:01;37.45;;;20.88;;
32250;SDS011;41295;48.518;9.206;2023-03-01T05:11:04;40.85;;;21.45;;
32250;SDS011;41295;48.518;9.206;2023-03-01T05:13:10;34.90;;;19.65;;
32250;SDS011;41295;48.518;9.206;2023-03-01T05:15:15;38.30;;;21.17;;
32250;SDS011;41295;48.518;9.206;2023-03-01T05:17:18;39.83;;;20.92;;
32250;SDS011;41295;48.518;9.206;2023-03-01T05:19:21;40.08;;;21.05;;
32250;SDS011;41295;48.518;9.206;2023-03-01T05:21:24;39.38;;;21.38;;
32250;SDS011;41295;48.518;9.206;2023-03-01T05:23:27;36.30;;;20.25;;
32250;SDS011;41295;48.518;9.206;2023-03-01T05:25:29;41.08;;;21.20;;
32250;SDS011;41295;48.518;9.206;2023-03-01T05:27:34;41.22;;;20.92;;
32250;SDS011;41295;48.518;9.206;2023-03-01T05:29:37;42.38;;;21.33;;
32250;SDS011;41295;48.518;9.206;2023-03-01T05:31:41;37.95;;;20.67;;
32250;SDS011;41295;48.518;9.206;2023-03-01T05:33:44;37.25;;;20.65;;
32250;SDS011;41295;48.518;9.206;2023-03-01T05:35:47;35.50;;;20.42;;
32250;SDS011;41295;48.518;9.206;2023-03-01T05:37:50;39.50;;;21.00;;
32250;SDS011;41295;48.518;9.206;2023-03-01T05:39:53;36.88;;;19.85;;
32250;SDS011;41295;48.518;9.206;2023-03-01T05:41:56;36.65;;;20.58;;
32250;SDS011;41295;48.518;9.206;2023-03-01T05:44:01;41.33;;;21.48;;
32250;SDS011;41295;48.518;9.206;2023-03-01T05:46:06;38.53;;;20.50;;
32250;SDS011;41295;48.518;9.206;2023-03-01T05:48:14;38.67;;;20.73;;
32250;SDS011;41295;48.518;9.206;2023-03-01T05:50:18;39.17;;;21.20;;
32250;SDS011;41295;48.518;9.206;2023-03-01T05:52:21;41.15;;;22.55;;
32250;SDS011;41295;48.518;9.206;2023-03-01T05:54:24;37.75;;;20.15;;
32250;SDS011;41295;48.518;9.206;2023-03-01T05:56:26;36.15;;;21.38;;
32250;SDS011;41295;48.518;9.206;2023-03-01T05:58:30;42.33;;;21.98;;
32250;SDS011;41295;48.518;9.206;2023-03-01T06:00:33;39.67;;;21.35;;
32250;SDS011;41295;48.518;9.206;2023-03-01T06:02:36;42.00;;;20.77;;
32250;SDS011;41295;48.518;9.206;2023-03-01T06:04:40;40.03;;;21.98;;
32250;SDS011;41295;48.518;9.206;2023-03-01T06:06:43;34.30;;;20.38;;
32250;SDS011;41295;48.518;9.206;2023-03-01T06:08:46;37.58;;;20.35;;
32250;SDS011;41295;48.518;9.206;2023-03-01T06:10:48;39.70;;;21.63;;
32250;SDS011;41295;48.518;9.206;2023-03-01T06:12:51;38.75;;;19.85;;
32250;SDS011;41295;48.518;9.206;2023-03-01T06:14:54;41.90;;;21.67;;
32250;SDS011;41295;48.518;9.206;2023-03-01T06:16:57;37.83;;;21.48;;
32250;SDS011;41295;48.518;9.206;2023-03-01T06:18:59;38.63;;;20.95;;
32250;SDS011;41295;48.518;9.206;2023-03-01T06:21:03;42.40;;;22.00;;
32250;SDS011;41295;48.518;9.206;2023-03-01T06:23:07;39.10;;;21.02;;
32250;SDS011;41295;48.518;9.206;2023-03-01T06:25:11;39.05;;;20.73;;
32250;SDS011;41295;48.518;9.206;2023-03-01T06:27:15;37.80;;;21.40;;
32250;SDS011;41295;48.518;9.206;2023-03-01T06:29:18;40.63;;;20.42;;
32250;SDS011;41295;48.518;9.206;2023-03-01T06:31:21;42.08;;;22.02;;
32250;SDS011;41295;48.518;9.206;2023-03-01T06:33:23;38.30;;;20.17;;
32250;SDS011;41295;48.518;9.206;2023-03-01T06:35:26;42.20;;;21.15;;
32250;SDS011;41295;48.518;9.206;2023-03-01T06:37:32;36.05;;;19.50;;
32250;SDS011;41295;48.518;9.206;2023-03-01T06:39:36;38.50;;;20.40;;
32250;SDS011;41295;48.518;9.206;2023-03-01T06:41:39;44.22;;;22.33;;
32250;SDS011;41295;48.518;9.206;2023-03-01T06:43:42;40.53;;;20.80;;
32250;SDS011;41295;48.518;9.206;2023-03-01T06:45:44;41.33;;;21.10;;
32250;SDS011;41295;48.518;9.206;2023-03-01T06:47:47;40.20;;;21.73;;
32250;SDS011;41295;48.518;9.206;2023-03-01T06:49:50;39.85;;;21.80;;
32250;SDS011;41295;48.518;9.206;2023-03-01T06:51:52;41.05;;;20.88;;
32250;SDS011;41295;48.518;9.206;2023-03-01T06:53:56;40.08;;;20.77;;
32250;SDS011;41295;48.518;9.206;2023-03-01T06:56:01;40.28;;;22.48;;
32250;SDS011;41295;48.518;9.206;2023-03-01T06:58:04;38.97;;;21.88;;
32250;SDS011;41295;48.518;9.206;2023-03-01T07:00:07;38.65;;;21.63;;
32250;SDS011;41295;48.518;9.206;2023-03-01T07:02:11;40.65;;;22.13;;
32250;SDS011;41295;48.518;9.206;2023-03-01T07:04:14;38.80;;;21.95;;
32250;SDS011;41295;48.518;9.206;2023-03-01T07:06:16;45.10;;;23.05;;
32250;SDS011;41295;48.518;9.206;2023-03-01T07:08:19;40.53;;;21.98;;
32250;SDS011;41295;48.518;9.206;2023-03-01T07:10:23;43.10;;;22.63;;
32250;SDS011;41295;48.518;9.206;2023-03-01T07:12:26;44.17;;;21.30;;
32250;SDS011;41295;48.518;9.206;2023-03-01T07:14:28;44.45;;;22.92;;
32250;SDS011;41295;48.518;9.206;2023-03-01T07:16:31;40.72;;;22.40;;
32250;SDS011;41295;48.518;9.206;2023-03-01T07:18:34;41.55;;;22.35;;
32250;SDS011;41295;48.518;9.206;2023-03-01T07:20:37;42.90;;;22.35;;
32250;SDS011;41295;48.518;9.206;2023-03-01T07:22:40;41.20;;;21.75;;
32250;SDS011;41295;48.518;9.206;2023-03-01T07:24:43;41.88;;;22.63;;
32250;SDS011;41295;48.518;9.206;2023-03-01T07:26:49;40.10;;;21.90;;
32250;SDS011;41295;48.518;9.206;2023-03-01T07:28:52;40.42;;;22.42;;
32250;SDS011;41295;48.518;9.206;2023-03-01T07:30:54;40.63;;;21.45;;
32250;SDS011;41295;48.518;9.206;2023-03-01T07:32:57;42.97;;;23.50;;
32250;SDS011;41295;48.518;9.206;2023-03-01T07:35:00;39.58;;;22.02;;
32250;SDS011;41295;48.518;9.206;2023-03-01T07:37:03;43.00;;;21.88;;
32250;SDS011;41295;48.518;9.206;2023-03-01T07:39:05;42.40;;;22.42;;
32250;SDS011;41295;48.518;9.206;2023-03-01T07:41:08;46.38;;;24.10;;
32250;SDS011;41295;48.518;9.206;2023-03-01T07:43:12;43.65;;;24.17;;
32250;SDS011;41295;48.518;9.206;2023-03-01T07:45:15;46.15;;;24.25;;
32250;SDS011;41295;48.518;9.206;2023-03-01T07:47:17;41.53;;;22.50;;
32250;SDS011;41295;48.518;9.206;2023-03-01T07:49:20;42.72;;;23.70;;
32250;SDS011;41295;48.518;9.206;2023-03-01T07:51:23;42.88;;;23.05;;
32250;SDS011;41295;48.518;9.206;2023-03-01T07:53:26;44.38;;;23.10;;
32250;SDS011;41295;48.518;9.206;2023-03-01T07:55:29;44.50;;;23.35;;
32250;SDS011;41295;48.518;9.206;2023-03-01T07:57:31;43.95;;;22.08;;
32250;SDS011;41295;48.518;9.206;2023-03-01T07:59:35;44.20;;;23.35;;
32250;SDS011;41295;48.518;9.206;2023-03-01T08:01:38;45.08;;;23.33;;
32250;SDS011;41295;48.518;9.206;2023-03-01T08:03:41;44.63;;;23.95;;
32250;SDS011;41295;48.518;9.206;2023-03-01T08:05:44;43.67;;;23.33;;
32250;SDS011;41295;48.518;9.206;2023-03-01T08:07:47;46.92;;;24.60;;
32250;SDS011;41295;48.518;9.206;2023-03-01T08:09:49;45.08;;;24.52;;
32250;SDS011;41295;48.518;9.206;2023-03-01T08:11:52;41.90;;;22.38;;
32250;SDS011;41295;48.518;9.206;2023-03-01T08:13:55;47.03;;;24.38;;
32250;SDS011;41295;48.518;9.206;2023-03-01T08:16:01;45.88;;;24.52;;
32250;SDS011;41295;48.518;9.206;2023-03-01T08:18:05;45.17;;;24.40;;
32250;SDS011;41295;48.518;9.206;2023-03-01T08:20:08;47.95;;;23.55;;
32250;SDS011;41295;48.518;9.206;2023-03-01T08:22:13;45.97;;;23.60;;
32250;SDS011;41295;48.518;9.206;2023-03-01T08:24:16;47.63;;;24.58;;
32250;SDS011;41295;48.518;9.206;2023-03-01T08:26:20;40.90;;;23.40;;
32250;SDS011;41295;48.518;9.206;2023-03-01T08:28:23;50.60;;;25.33;;
32250;SDS011;41295;48.518;9.206;2023-03-01T08:30:25;44.45;;;24.10;;
32250;SDS011;41295;48.518;9.206;2023-03-01T08:32:29;45.90;;;25.65;;
32250;SDS011;41295;48.518;9.206;2023-03-01T08:34:32;49.47;;;23.60;;
32250;SDS011;41295;48.518;9.206;2023-03-01T08:36:37;43.20;;;22.45;;
32250;SDS011;41295;48.518;9.206;2023-03-01T08:38:41;43.03;;;23.13;;
32250;SDS011;41295;48.518;9.206;2023-03-01T08:40:44;44.20;;;23.75;;
32250;SDS011;41295;48.518;9.206;2023-03-01T08:42:46;46.33;;;23.83;;
32250;SDS011;41295;48.518;9.206;2023-03-01T08:44:49;46.08;;;25.25;;
32250;SDS011;41295;48.518;9.206;2023-03-01T08:46:51;43.65;;;22.75;;
32250;SDS011;41295;48.518;9.206;2023-03-01T08:48:58;53.40;;;24.15;;
32250;SDS011;41295;48.518;9.206;2023-03-01T08:51:06;46.78;;;25.08;;
32250;SDS011;41295;48.518;9.206;2023-03-01T08:53:09;46.70;;;24.75;;
32250;SDS011;41295;48.518;9.206;2023-03-01T08:55:12;50.30;;;25.40;;
32250;SDS011;41295;48.518;9.206;2023-03-01T08:57:16;45.00;;;24.40;;
32250;SDS011;41295;48.518;9.206;2023-03-01T08:59:18;43.25;;;23.73;;
32250;SDS011;41295;48.518;9.206;2023-03-01T09:01:21;43.03;;;24.15;;
32250;SDS011;41295;48.518;9.206;2023-03-01T09:03:24;47.10;;;24.25;;
32250;SDS011;41295;48.518;9.206;2023-03-01T09:05:28;44.10;;;24.35;;
32250;SDS011;41295;48.518;9.206;2023-03-01T09:07:33;47.00;;;25.15;;
32250;SDS011;41295;48.518;9.206;2023-03-01T09:09:36;48.28;;;24.77;;
32250;SDS011;41295;48.518;9.206;2023-03-01T09:11:39;46.80;;;24.95;;
32250;SDS011;41295;48.518;9.206;2023-03-01T09:13:42;46.90;;;23.30;;
32250;SDS011;41295;48.518;9.206;2023-03-01T09:15:45;45.10;;;24.60;;
32250;SDS011;41295;48.518;9.206;2023-03-01T09:17:47;47.70;;;24.52;;
32250;SDS011;41295;48.518;9.206;2023-03-01T09:19:50;45.38;;;23.45;;
32250;SDS011;41295;48.518;9.206;2023-03-01T09:21:54;45.90;;;25.15;;
32250;SDS011;41295;48.518;9.206;2023-03-01T09:23:57;43.97;;;23.98;;
32250;SDS011;41295;48.518;9.206;2023-03-01T09:26:00;45.42;;;24.15;;
32250;SDS011;41295;48.518;9.206;2023-03-01T09:28:02;47.15;;;24.23;;
32250;SDS011;41295;48.518;9.206;2023-03-01T09:30:06;50.97;;;25.70;;
32250;SDS011;41295;48.518;9.206;2023-03-01T09:32:09;48.35;;;24.35;;
32250;SDS011;41295;48.518;9.206;2023-03-01T09:34:12;44.03;;;23.65;;
32250;SDS011;41295;48.518;9.206;2023-03-01T09:36:18;47.50;;;24.55;;
32250;SDS011;41295;48.518;9.206;2023-03-01T09:38:23;46.30;;;23.75;;
32250;SDS011;41295;48.518;9.206;2023-03-01T09:40:29;44.75;;;24.63;;
32250;SDS011;41295;48.518;9.206;2023-03-01T09:42:32;48.67;;;25.85;;
32250;SDS011;41295;48.518;9.206;2023-03-01T09:44:38;41.70;;;23.88;;
32250;SDS011;41295;48.518;9.206;2023-03-01T09:46:48;45.50;;;24.23;;
32250;SDS011;41295;48.518;9.206;2023-03-01T09:48:52;44.83;;;23.77;;
32250;SDS011;41295;48.518;9.206;2023-03-01T09:50:59;46.83;;;25.08;;
32250;SDS011;41295;48.518;9.206;2023-03-01T09:53:10;45.70;;;26.13;;
32250;SDS011;41295;48.518;9.206;2023-03-01T09:55:20;46.85;;;23.90;;
32250;SDS011;41295;48.518;9.206;2023-03-01T09:57:30;43.58;;;25.02;;
32250;SDS011;41295;48.518;9.206;2023-03-01T09:59:43;47.75;;;24.25;;
32250;SDS011;41295;48.518;9.206;2023-03-01T10:01:55;47.38;;;25.33;;
32250;SDS011;41295;48.518;9.206;2023-03-01T10:04:23;44.90;;;24.25;;
32250;SDS011;41295;48.518;9.206;2023-03-01T10:06:32;41.60;;;23.55;;
32250;SDS011;41295;48.518;9.206;2023-03-01T10:08:36;40.03;;;22.75;;
32250;SDS011;41295;48.518;9.206;2023-03-01T10:10:44;43.00;;;24.13;;
32250;SDS011;41295;48.518;9.206;2023-03-01T10:12:49;43.55;;;23.90;;
32250;SDS011;41295;48.518;9.206;2023-03-01T10:14:54;46.50;;;24.40;;
32250;SDS011;41295;48.518;9.206;2023-03-01T10:17:04;45.28;;;22.13;;
32250;SDS011;41295;48.518;9.206;2023-03-01T10:19:11;41.38;;;23.08;;
32250;SDS011;41295;48.518;9.206;2023-03-01T10:21:18;45.30;;;23.23;;
32250;SDS011;41295;48.518;9.206;2023-03-01T10:23:22;46.05;;;23.73;;
32250;SDS011;41295;48.518;9.206;2023-03-01T10:25:32;44.00;;;23.75;;
32250;SDS011;41295;48.518;9.206;2023-03-01T10:27:47;41.17;;;23.20;;
32250;SDS011;41295;48.518;9.206;2023-03-01T10:29:56;48.97;;;23.75;;
32250;SDS011;41295;48.518;9.206;2023-03-01T10:32:04;45.17;;;23.27;;
32250;SDS011;41295;48.518;9.206;2023-03-01T10:34:09;46.60;;;24.88;;
32250;SDS011;41295;48.518;9.206;2023-03-01T10:36:15;44.65;;;24.48;;
32250;SDS011;41295;48.518;9.206;2023-03-01T10:38:18;46.63;;;23.40;;
32250;SDS011;41295;48.518;9.206;2023-03-01T10:40:21;47.17;;;24.15;;
32250;SDS011;41295;48.518;9.206;2023-03-01T10:42:29;40.45;;;23.13;;
32250;SDS011;41295;48.518;9.206;2023-03-01T10:44:38;42.80;;;23.02;;
32250;SDS011;41295;48.518;9.206;2023-03-01T10:46:43;42.67;;;21.90;;
32250;SDS011;41295;48.518;9.206;2023-03-01T10:48:45;47.20;;;24.02;;
32250;SDS011;41295;48.518;9.206;2023-03-01T10:51:07;42.28;;;20.52;;
32250;SDS011;41295;48.518;9.206;2023-03-01T10:53:20;39.55;;;21.85;;
32250;SDS011;41295;48.518;9.206;2023-03-01T10:55:28;42.28;;;22.05;;
32250;SDS011;41295;48.518;9.206;2023-03-01T10:57:36;39.85;;;21.13;;
32250;SDS011;41295;48.518;9.206;2023-03-01T10:59:44;41.75;;;21.92;;
32250;SDS011;41295;48.518;9.206;2023-03-01T11:01:47;38.25;;;21.92;;
32250;SDS011;41295;48.518;9.206;2023-03-01T11:04:18;37.35;;;20.30;;
32250;SDS011;41295;48.518;9.206;2023-03-01T11:06:21;34.67;;;20.02;;
32250;SDS011;41295;48.518;9.206;2023-03-01T11:08:31;37.35;;;20.95;;
32250;SDS011;41295;48.518;9.206;2023-03-01T11:10:37;39.47;;;21.77;;
32250;SDS011;41295;48.518;9.206;2023-03-01T11:12:39;35.33;;;19.60;;
32250;SDS011;41295;48.518;9.206;2023-03-01T11:14:47;39.97;;;21.48;;
32250;SDS011;41295;48.518;9.206;2023-03-01T11:16:58;38.13;;;21.27;;
32250;SDS011;41295;48.518;9.206;2023-03-01T11:19:15;37.97;;;20.63;;
32250;SDS011;41295;48.518;9.206;2023-03-01T11:21:20;36.58;;;19.73;;
32250;SDS011;41295;48.518;9.206;2023-03-01T11:23:22;40.50;;;22.05;;
32250;SDS011;41295;48.518;9.206;2023-03-01T11:25:26;39.85;;;21.17;;
32250;SDS011;41295;48.518;9.206;2023-03-01T11:27:31;37.55;;;19.67;;
32250;SDS011;41295;48.518;9.206;2023-03-01T11:29:36;39.58;;;19.83;;
32250;SDS011;41295;48.518;9.206;2023-03-01T11:31:50;38.88;;;19.77;;
32250;SDS011;41295;48.518;9.206;2023-03-01T11:33:59;37.15;;;21.27;;
32250;SDS011;41295;48.518;9.206;2023-03-01T11:36:13;39.00;;;21.33;;
32250;SDS011;41295;48.518;9.206;2023-03-01T11:38:21;36.55;;;19.48;;
32250;SDS011;41295;48.518;9.206;2023-03-01T11:40:26;33.88;;;19.02;;
32250;SDS011;41295;48.518;9.206;2023-03-01T11:42:38;36.10;;;20.85;;
32250;SDS011;41295;48.518;9.206;2023-03-01T11:44:49;37.55;;;19.77;;
32250;SDS011;41295;48.518;9.206;2023-03-01T11:47:06;36.00;;;21.45;;
32250;SDS011;41295;48.518;9.206;2023-03-01T11:49:26;35.55;;;20.35;;
32250;SDS011;41295;48.518;9.206;2023-03-01T11:51:42;35.35;;;20.38;;
32250;SDS011;41295;48.518;9.206;2023-03-01T11:54:01;37.17;;;20.60;;
32250;SDS011;41295;48.518;9.206;2023-03-01T11:56:16;34.88;;;20.35;;
32250;SDS011;41295;48.518;9.206;2023-03-01T11:58:35;36.28;;;20.15;;
32250;SDS011;41295;48.518;9.206;2023-03-01T12:03:18;31.95;;;18.70;;
32250;SDS011;41295;48.518;9.206;2023-03-01T12:05:37;39.45;;;18.88;;
32250;SDS011;41295;48.518;9.206;2023-03-01T12:07:53;35.35;;;18.75;;
32250;SDS011;41295;48.518;9.206;2023-03-01T12:10:15;38.65;;;18.83;;
32250;SDS011;41295;48.518;9.206;2023-03-01T12:12:30;35.00;;;19.17;;
32250;SDS011;41295;48.518;9.206;2023-03-01T12:14:43;37.22;;;20.10;;
32250;SDS011;41295;48.518;9.206;2023-03-01T12:16:59;37.90;;;19.75;;
32250;SDS011;41295;48.518;9.206;2023-03-01T12:19:23;33.03;;;18.02;;